sensor_id;sensor_type;location;lat;lon;timestamp;P1;durP1;ratioP1;P2;durP2;ratioP2
39344;SDS011;25061;51.954;6.996;2023-11-18T00:00:58;27.90;;;12.75;;
39344;SDS011;25061;51.954;6.996;2023-11-18T00:03:23;30.60;;;12.73;;
39344;SDS011;25061;51.954;6.996;2023-11-18T00:05:49;28.05;;;12.00;;
39344;SDS011;25061;51.954;6.996;2023-11-18T00:08:15;30.45;;;12.73;;
39344;SDS011;25061;51.954;6.996;2023-11-18T00:10:40;35.03;;;12.52;;
39344;SDS011;25061;51.954;6.996;2023-11-18T00:13:06;43.55;;;13.32;;
39344;SDS011;25061;51.954;6.996;2023-11-18T00:15:32;45.42;;;12.38;;
39344;SDS011;25061;51.954;6.996;2023-11-18T00:18:00;49.63;;;14.43;;
39344;SDS011;25061;51.954;6.996;2023-11-18T00:20:25;47.70;;;13.57;;
39344;SDS011;25061;51.954;6.996;2023-11-18T00:22:51;51.58;;;13.68;;
39344;SDS011;25061;51.954;6.996;2023-11-18T00:25:18;60.45;;;13.30;;
39344;SDS011;25061;51.954;6.996;2023-11-18T00:27:44;45.85;;;13.25;;
39344;SDS011;25061;51.954;6.996;2023-11-18T00:30:09;41.53;;;13.30;;
39344;SDS011;25061;51.954;6.996;2023-11-18T00:32:38;54.85;;;13.50;;
39344;SDS011;25061;51.954;6.996;2023-11-18T00:35:04;37.38;;;12.52;;
39344;SDS011;25061;51.954;6.996;2023-11-18T00:37:30;45.33;;;13.68;;
39344;SDS011;25061;51.954;6.996;2023-11-18T00:39:57;53.83;;;14.10;;
39344;SDS011;25061;51.954;6.996;2023-11-18T00:42:22;26.75;;;12.05;;
39344;SDS011;25061;51.954;6.996;2023-11-18T00:44:48;44.78;;;12.50;;
39344;SDS011;25061;51.954;6.996;2023-11-18T00:47:13;35.17;;;12.52;;
39344;SDS011;25061;51.954;6.996;2023-11-18T00:49:39;38.03;;;12.68;;
39344;SDS011;25061;51.954;6.996;2023-11-18T00:52:05;32.60;;;12.88;;
39344;SDS011;25061;51.954;6.996;2023-11-18T00:54:31;32.92;;;12.57;;
39344;SDS011;25061;51.954;6.996;2023-11-18T00:56:59;36.15;;;12.88;;
39344;SDS011;25061;51.954;6.996;2023-11-18T00:59:25;44.28;;;12.32;;
39344;SDS011;25061;51.954;6.996;2023-11-18T06:33:09;33.33;;;14.23;;
39344;SDS011;25061;51.954;6.996;2023-11-18T06:35:38;32.72;;;15.15;;
39344;SDS011;25061;51.954;6.996;2023-11-18T06:38:05;32.40;;;14.38;;
39344;SDS011;25061;51.954;6.996;2023-11-18T06:40:30;30.23;;;13.35;;
39344;SDS011;25061;51.954;6.996;2023-11-18T06:42:57;31.45;;;13.57;;
39344;SDS011;25061;51.954;6.996;2023-11-18T06:45:27;39.13;;;14.82;;
39344;SDS011;25061;51.954;6.996;2023-11-18T06:47:53;34.85;;;14.70;;
39344;SDS011;25061;51.954;6.996;2023-11-18T06:50:18;38.42;;;17.05;;
39344;SDS011;25061;51.954;6.996;2023-11-18T06:52:49;37.85;;;16.73;;
39344;SDS011;25061;51.954;6.996;2023-11-18T06:55:16;38.42;;;15.55;;
39344;SDS011;25061;51.954;6.996;2023-11-18T06:57:41;30.50;;;15.27;;
39344;SDS011;25061;51.954;6.996;2023-11-18T07:00:09;35.63;;;16.55;;
39344;SDS011;25061;51.954;6.996;2023-11-18T07:02:35;39.60;;;16.13;;
39344;SDS011;25061;51.954;6.996;2023-11-18T07:05:01;33.03;;;15.13;;
39344;SDS011;25061;51.954;6.996;2023-11-18T07:07:26;33.95;;;14.77;;
39344;SDS011;25061;51.954;6.996;2023-11-18T07:09:52;31.73;;;15.60;;
39344;SDS011;25061;51.954;6.996;2023-11-18T07:12:18;34.42;;;16.85;;
39344;SDS011;25061;51.954;6.996;2023-11-18T07:14:44;41.58;;;17.83;;
39344;SDS011;25061;51.954;6.996;2023-11-18T07:17:12;37.80;;;15.90;;
39344;SDS011;25061;51.954;6.996;2023-11-18T07:19:38;33.42;;;14.30;;
39344;SDS011;25061;51.954;6.996;2023-11-18T07:22:05;31.65;;;13.93;;
39344;SDS011;25061;51.954;6.996;2023-11-18T07:24:31;31.13;;;13.98;;
39344;SDS011;25061;51.954;6.996;2023-11-18T07:26:57;35.10;;;16.13;;
39344;SDS011;25061;51.954;6.996;2023-11-18T07:29:24;33.80;;;15.30;;
39344;SDS011;25061;51.954;6.996;2023-11-18T07:31:52;38.35;;;18.98;;
39344;SDS011;25061;51.954;6.996;2023-11-18T07:34:20;35.28;;;16.52;;
39344;SDS011;25061;51.954;6.996;2023-11-18T07:36:48;36.08;;;15.10;;
39344;SDS011;25061;51.954;6.996;2023-11-18T07:39:15;34.22;;;16.05;;
39344;SDS011;25061;51.954;6.996;2023-11-18T07:41:43;38.60;;;15.82;;
39344;SDS011;25061;51.954;6.996;2023-11-18T07:44:09;30.35;;;14.93;;
39344;SDS011;25061;51.954;6.996;2023-11-18T07:46:37;34.40;;;15.20;;
39344;SDS011;25061;51.954;6.996;2023-11-18T07:49:03;36.03;;;15.50;;
39344;SDS011;25061;51.954;6.996;2023-11-18T07:51:29;30.40;;;14.57;;
39344;SDS011;25061;51.954;6.996;2023-11-18T07:53:55;32.17;;;15.30;;
39344;SDS011;25061;51.954;6.996;2023-11-18T07:56:20;34.38;;;15.07;;
39344;SDS011;25061;51.954;6.996;2023-11-18T07:58:49;33.00;;;14.18;;
39344;SDS011;25061;51.954;6.996;2023-11-18T08:01:17;35.42;;;14.93;;
39344;SDS011;25061;51.954;6.996;2023-11-18T08:03:43;32.88;;;14.73;;
39344;SDS011;25061;51.954;6.996;2023-11-18T08:06:08;31.83;;;14.27;;
39344;SDS011;25061;51.954;6.996;2023-11-18T08:08:35;31.83;;;14.93;;
39344;SDS011;25061;51.954;6.996;2023-11-18T08:11:04;30.90;;;14.18;;
39344;SDS011;25061;51.954;6.996;2023-11-18T08:13:30;31.42;;;14.70;;
39344;SDS011;25061;51.954;6.996;2023-11-18T08:15:56;33.22;;;15.80;;
39344;SDS011;25061;51.954;6.996;2023-11-18T08:18:23;31.88;;;14.52;;
39344;SDS011;25061;51.954;6.996;2023-11-18T08:20:49;32.85;;;15.07;;
39344;SDS011;25061;51.954;6.996;2023-11-18T08:23:15;34.10;;;15.18;;
39344;SDS011;25061;51.954;6.996;2023-11-18T08:25:41;32.63;;;15.02;;
39344;SDS011;25061;51.954;6.996;2023-11-18T08:28:07;34.60;;;15.35;;
39344;SDS011;25061;51.954;6.996;2023-11-18T08:30:33;30.30;;;15.38;;
39344;SDS011;25061;51.954;6.996;2023-11-18T08:33:02;35.70;;;15.45;;
39344;SDS011;25061;51.954;6.996;2023-11-18T08:35:34;36.08;;;14.98;;
39344;SDS011;25061;51.954;6.996;2023-11-18T08:38:00;32.38;;;14.68;;
39344;SDS011;25061;51.954;6.996;2023-11-18T08:40:26;32.72;;;15.43;;
39344;SDS011;25061;51.954;6.996;2023-11-18T08:42:52;30.92;;;14.70;;
39344;SDS011;25061;51.954;6.996;2023-11-18T08:45:21;34.90;;;15.35;;
39344;SDS011;25061;51.954;6.996;2023-11-18T08:47:55;40.08;;;16.58;;
39344;SDS011;25061;51.954;6.996;2023-11-18T08:50:22;32.17;;;15.57;;
39344;SDS011;25061;51.954;6.996;2023-11-18T08:52:49;36.50;;;15.85;;
39344;SDS011;25061;51.954;6.996;2023-11-18T08:55:18;38.92;;;16.50;;
39344;SDS011;25061;51.954;6.996;2023-11-18T08:57:49;38.80;;;15.88;;
39344;SDS011;25061;51.954;6.996;2023-11-18T09:00:23;36.20;;;16.38;;
39344;SDS011;25061;51.954;6.996;2023-11-18T09:03:22;36.97;;;16.63;;
39344;SDS011;25061;51.954;6.996;2023-11-18T09:05:59;34.25;;;14.25;;
39344;SDS011;25061;51.954;6.996;2023-11-18T09:08:33;32.50;;;15.40;;
39344;SDS011;25061;51.954;6.996;2023-11-18T09:11:07;36.17;;;15.23;;
39344;SDS011;25061;51.954;6.996;2023-11-18T09:13:37;32.53;;;14.95;;
39344;SDS011;25061;51.954;6.996;2023-11-18T09:16:04;32.40;;;14.82;;
39344;SDS011;25061;51.954;6.996;2023-11-18T09:18:34;31.60;;;14.60;;
39344;SDS011;25061;51.954;6.996;2023-11-18T09:21:02;33.90;;;14.27;;
39344;SDS011;25061;51.954;6.996;2023-11-18T09:23:30;32.13;;;14.23;;
39344;SDS011;25061;51.954;6.996;2023-11-18T09:25:59;31.10;;;14.73;;
39344;SDS011;25061;51.954;6.996;2023-11-18T09:28:32;29.58;;;13.65;;
39344;SDS011;25061;51.954;6.996;2023-11-18T09:31:00;32.55;;;15.02;;
39344;SDS011;25061;51.954;6.996;2023-11-18T09:33:28;31.42;;;15.18;;
39344;SDS011;25061;51.954;6.996;2023-11-18T09:36:01;30.63;;;13.95;;
39344;SDS011;25061;51.954;6.996;2023-11-18T09:38:37;31.60;;;13.10;;
39344;SDS011;25061;51.954;6.996;2023-11-18T09:41:10;26.75;;;13.27;;
39344;SDS011;25061;51.954;6.996;2023-11-18T09:43:43;30.25;;;14.80;;
39344;SDS011;25061;51.954;6.996;2023-11-18T09:51:41;28.45;;;13.63;;
39344;SDS011;25061;51.954;6.996;2023-11-18T09:54:17;29.80;;;13.32;;
39344;SDS011;25061;51.954;6.996;2023-11-18T10:02:50;34.45;;;14.18;;
39344;SDS011;25061;51.954;6.996;2023-11-18T10:05:17;31.88;;;13.40;;
39344;SDS011;25061;51.954;6.996;2023-11-18T10:07:47;25.35;;;13.02;;
39344;SDS011;25061;51.954;6.996;2023-11-18T10:10:17;29.48;;;13.25;;
39344;SDS011;25061;51.954;6.996;2023-11-18T10:12:47;28.88;;;13.43;;
39344;SDS011;25061;51.954;6.996;2023-11-18T10:15:23;28.40;;;13.65;;
39344;SDS011;25061;51.954;6.996;2023-11-18T10:17:50;24.40;;;12.52;;
39344;SDS011;25061;51.954;6.996;2023-11-18T10:20:42;32.53;;;13.40;;
39344;SDS011;25061;51.954;6.996;2023-11-18T10:23:13;28.90;;;12.70;;
39344;SDS011;25061;51.954;6.996;2023-11-18T10:25:47;28.05;;;14.00;;
39344;SDS011;25061;51.954;6.996;2023-11-18T10:28:26;29.90;;;13.07;;
39344;SDS011;25061;51.954;6.996;2023-11-18T10:30:53;29.05;;;13.32;;
39344;SDS011;25061;51.954;6.996;2023-11-18T10:33:22;28.38;;;13.48;;
39344;SDS011;25061;51.954;6.996;2023-11-18T10:35:55;27.25;;;13.02;;
39344;SDS011;25061;51.954;6.996;2023-11-18T10:38:22;25.92;;;12.32;;
39344;SDS011;25061;51.954;6.996;2023-11-18T10:40:54;25.30;;;12.95;;
39344;SDS011;25061;51.954;6.996;2023-11-18T10:43:22;26.63;;;12.45;;
39344;SDS011;25061;51.954;6.996;2023-11-18T10:46:06;24.77;;;11.00;;
39344;SDS011;25061;51.954;6.996;2023-11-18T10:51:16;26.17;;;11.48;;
39344;SDS011;25061;51.954;6.996;2023-11-18T10:53:46;27.55;;;12.73;;
39344;SDS011;25061;51.954;6.996;2023-11-18T10:56:25;27.73;;;12.80;;
39344;SDS011;25061;51.954;6.996;2023-11-18T10:58:57;27.30;;;12.77;;
39344;SDS011;25061;51.954;6.996;2023-11-18T11:01:34;25.88;;;11.43;;
39344;SDS011;25061;51.954;6.996;2023-11-18T11:04:07;19.95;;;11.38;;
39344;SDS011;25061;51.954;6.996;2023-11-18T11:06:35;24.10;;;12.23;;
39344;SDS011;25061;51.954;6.996;2023-11-18T11:09:06;33.13;;;15.13;;
39344;SDS011;25061;51.954;6.996;2023-11-18T11:11:38;24.38;;;14.20;;
39344;SDS011;25061;51.954;6.996;2023-11-18T11:14:11;29.42;;;15.13;;
39344;SDS011;25061;51.954;6.996;2023-11-18T11:16:42;29.52;;;15.57;;
39344;SDS011;25061;51.954;6.996;2023-11-18T11:19:13;24.50;;;12.20;;
39344;SDS011;25061;51.954;6.996;2023-11-18T11:22:05;23.50;;;12.00;;
39344;SDS011;25061;51.954;6.996;2023-11-18T11:27:25;23.90;;;11.90;;
39344;SDS011;25061;51.954;6.996;2023-11-18T11:30:21;24.90;;;11.57;;
39344;SDS011;25061;51.954;6.996;2023-11-18T11:32:53;23.33;;;11.10;;
39344;SDS011;25061;51.954;6.996;2023-11-18T11:35:33;24.48;;;12.20;;
39344;SDS011;25061;51.954;6.996;2023-11-18T11:38:02;25.05;;;12.27;;
39344;SDS011;25061;51.954;6.996;2023-11-18T11:40:35;26.95;;;11.85;;
39344;SDS011;25061;51.954;6.996;2023-11-18T11:43:02;26.00;;;10.77;;
39344;SDS011;25061;51.954;6.996;2023-11-18T11:45:34;23.38;;;11.40;;
39344;SDS011;25061;51.954;6.996;2023-11-18T11:48:00;26.98;;;11.85;;
39344;SDS011;25061;51.954;6.996;2023-11-18T11:53:38;24.70;;;11.88;;
39344;SDS011;25061;51.954;6.996;2023-11-18T11:56:10;22.17;;;10.17;;
39344;SDS011;25061;51.954;6.996;2023-11-18T11:58:44;22.63;;;11.55;;
39344;SDS011;25061;51.954;6.996;2023-11-18T12:01:26;22.23;;;11.35;;
39344;SDS011;25061;51.954;6.996;2023-11-18T12:03:59;21.25;;;10.48;;
39344;SDS011;25061;51.954;6.996;2023-11-18T12:06:33;24.15;;;11.68;;
39344;SDS011;25061;51.954;6.996;2023-11-18T12:09:00;24.17;;;10.68;;
39344;SDS011;25061;51.954;6.996;2023-11-18T12:11:35;20.45;;;9.93;;
39344;SDS011;25061;51.954;6.996;2023-11-18T12:14:11;23.05;;;11.25;;
39344;SDS011;25061;51.954;6.996;2023-11-18T12:17:05;24.25;;;11.73;;
39344;SDS011;25061;51.954;6.996;2023-11-18T12:19:37;20.35;;;10.48;;
39344;SDS011;25061;51.954;6.996;2023-11-18T12:22:16;20.23;;;10.18;;
39344;SDS011;25061;51.954;6.996;2023-11-18T12:35:29;19.20;;;9.35;;
39344;SDS011;25061;51.954;6.996;2023-11-18T12:40:52;16.73;;;8.15;;
39344;SDS011;25061;51.954;6.996;2023-11-18T12:46:34;22.65;;;9.50;;
39344;SDS011;25061;51.954;6.996;2023-11-18T12:49:21;21.88;;;9.30;;
39344;SDS011;25061;51.954;6.996;2023-11-18T12:51:49;19.70;;;8.60;;
39344;SDS011;25061;51.954;6.996;2023-11-18T12:54:20;22.98;;;9.35;;
39344;SDS011;25061;51.954;6.996;2023-11-18T12:56:46;19.77;;;8.55;;
39344;SDS011;25061;51.954;6.996;2023-11-18T12:59:15;17.52;;;9.05;;
39344;SDS011;25061;51.954;6.996;2023-11-18T13:01:43;22.88;;;9.43;;
39344;SDS011;25061;51.954;6.996;2023-11-18T13:04:22;17.40;;;7.95;;
39344;SDS011;25061;51.954;6.996;2023-11-18T13:06:49;19.23;;;9.23;;
39344;SDS011;25061;51.954;6.996;2023-11-18T13:09:19;17.80;;;8.32;;
39344;SDS011;25061;51.954;6.996;2023-11-18T13:11:57;19.63;;;8.80;;
39344;SDS011;25061;51.954;6.996;2023-11-18T13:14:25;21.85;;;9.57;;
39344;SDS011;25061;51.954;6.996;2023-11-18T13:16:54;22.40;;;11.85;;
39344;SDS011;25061;51.954;6.996;2023-11-18T13:19:27;25.23;;;11.48;;
39344;SDS011;25061;51.954;6.996;2023-11-18T13:22:03;20.60;;;11.02;;
39344;SDS011;25061;51.954;6.996;2023-11-18T13:24:33;17.85;;;9.15;;
39344;SDS011;25061;51.954;6.996;2023-11-18T13:27:04;23.05;;;10.07;;
39344;SDS011;25061;51.954;6.996;2023-11-18T13:29:31;15.75;;;8.00;;
39344;SDS011;25061;51.954;6.996;2023-11-18T13:31:59;16.25;;;8.02;;
39344;SDS011;25061;51.954;6.996;2023-11-18T13:34:28;18.63;;;8.00;;
39344;SDS011;25061;51.954;6.996;2023-11-18T13:37:04;17.77;;;7.70;;
39344;SDS011;25061;51.954;6.996;2023-11-18T13:39:38;15.68;;;7.22;;
39344;SDS011;25061;51.954;6.996;2023-11-18T13:42:26;16.15;;;6.53;;
39344;SDS011;25061;51.954;6.996;2023-11-18T13:44:53;17.55;;;7.20;;
39344;SDS011;25061;51.954;6.996;2023-11-18T13:47:25;14.65;;;7.20;;
39344;SDS011;25061;51.954;6.996;2023-11-18T13:49:56;14.15;;;6.10;;
39344;SDS011;25061;51.954;6.996;2023-11-18T13:52:23;13.10;;;6.78;;
39344;SDS011;25061;51.954;6.996;2023-11-18T13:54:50;14.88;;;5.97;;
39344;SDS011;25061;51.954;6.996;2023-11-18T13:57:20;13.55;;;6.40;;
39344;SDS011;25061;51.954;6.996;2023-11-18T13:59:49;13.18;;;5.65;;
39344;SDS011;25061;51.954;6.996;2023-11-18T14:02:15;14.00;;;5.57;;
39344;SDS011;25061;51.954;6.996;2023-11-18T14:04:44;11.63;;;5.40;;
39344;SDS011;25061;51.954;6.996;2023-11-18T14:07:10;14.63;;;6.18;;
39344;SDS011;25061;51.954;6.996;2023-11-18T14:09:42;15.02;;;6.68;;
39344;SDS011;25061;51.954;6.996;2023-11-18T14:12:11;16.95;;;6.65;;
39344;SDS011;25061;51.954;6.996;2023-11-18T14:14:37;15.02;;;6.55;;
39344;SDS011;25061;51.954;6.996;2023-11-18T14:17:06;11.05;;;4.65;;
39344;SDS011;25061;51.954;6.996;2023-11-18T14:19:35;15.83;;;5.83;;
39344;SDS011;25061;51.954;6.996;2023-11-18T14:22:00;14.45;;;5.78;;
39344;SDS011;25061;51.954;6.996;2023-11-18T14:24:31;9.10;;;4.47;;
39344;SDS011;25061;51.954;6.996;2023-11-18T14:26:59;11.88;;;4.93;;
39344;SDS011;25061;51.954;6.996;2023-11-18T14:29:27;13.43;;;5.63;;
39344;SDS011;25061;51.954;6.996;2023-11-18T14:31:52;14.35;;;5.43;;
39344;SDS011;25061;51.954;6.996;2023-11-18T14:34:19;14.73;;;5.25;;
39344;SDS011;25061;51.954;6.996;2023-11-18T14:36:45;13.55;;;5.15;;
39344;SDS011;25061;51.954;6.996;2023-11-18T14:39:10;14.15;;;5.93;;
39344;SDS011;25061;51.954;6.996;2023-11-18T14:41:38;10.30;;;4.53;;
39344;SDS011;25061;51.954;6.996;2023-11-18T14:44:05;14.75;;;5.93;;
39344;SDS011;25061;51.954;6.996;2023-11-18T14:46:31;11.80;;;5.30;;
39344;SDS011;25061;51.954;6.996;2023-11-18T14:48:57;15.63;;;5.43;;
39344;SDS011;25061;51.954;6.996;2023-11-18T14:51:23;9.00;;;3.85;;
39344;SDS011;25061;51.954;6.996;2023-11-18T14:53:48;11.57;;;5.50;;
39344;SDS011;25061;51.954;6.996;2023-11-18T14:56:14;10.95;;;4.32;;
39344;SDS011;25061;51.954;6.996;2023-11-18T14:58:40;14.27;;;4.97;;
39344;SDS011;25061;51.954;6.996;2023-11-18T15:01:06;8.65;;;3.50;;
39344;SDS011;25061;51.954;6.996;2023-11-18T15:03:35;9.63;;;4.45;;
39344;SDS011;25061;51.954;6.996;2023-11-18T15:06:01;11.10;;;4.32;;
39344;SDS011;25061;51.954;6.996;2023-11-18T15:08:27;11.75;;;4.60;;
39344;SDS011;25061;51.954;6.996;2023-11-18T15:10:53;11.77;;;5.38;;
39344;SDS011;25061;51.954;6.996;2023-11-18T15:13:18;14.05;;;4.32;;
39344;SDS011;25061;51.954;6.996;2023-11-18T15:15:46;12.15;;;4.32;;
39344;SDS011;25061;51.954;6.996;2023-11-18T15:18:14;9.95;;;4.10;;
39344;SDS011;25061;51.954;6.996;2023-11-18T15:20:48;12.43;;;4.53;;
39344;SDS011;25061;51.954;6.996;2023-11-18T15:23:14;14.07;;;5.78;;
39344;SDS011;25061;51.954;6.996;2023-11-18T15:25:47;13.05;;;4.95;;
39344;SDS011;25061;51.954;6.996;2023-11-18T15:28:17;12.77;;;5.70;;
39344;SDS011;25061;51.954;6.996;2023-11-18T15:30:44;12.13;;;5.32;;
39344;SDS011;25061;51.954;6.996;2023-11-18T15:33:11;11.82;;;5.30;;
39344;SDS011;25061;51.954;6.996;2023-11-18T15:35:40;12.18;;;5.43;;
39344;SDS011;25061;51.954;6.996;2023-11-18T15:38:09;14.63;;;6.13;;
39344;SDS011;25061;51.954;6.996;2023-11-18T15:40:41;14.18;;;5.70;;
39344;SDS011;25061;51.954;6.996;2023-11-18T15:43:07;11.85;;;5.22;;
39344;SDS011;25061;51.954;6.996;2023-11-18T15:45:36;10.32;;;5.00;;
39344;SDS011;25061;51.954;6.996;2023-11-18T15:48:02;12.82;;;5.93;;
39344;SDS011;25061;51.954;6.996;2023-11-18T15:50:32;13.10;;;5.45;;
39344;SDS011;25061;51.954;6.996;2023-11-18T15:53:02;11.80;;;5.47;;
39344;SDS011;25061;51.954;6.996;2023-11-18T15:55:28;13.52;;;5.85;;
39344;SDS011;25061;51.954;6.996;2023-11-18T15:57:54;11.90;;;6.22;;
39344;SDS011;25061;51.954;6.996;2023-11-18T16:00:24;10.48;;;4.57;;
39344;SDS011;25061;51.954;6.996;2023-11-18T16:02:51;11.15;;;5.50;;
39344;SDS011;25061;51.954;6.996;2023-11-18T16:05:26;9.98;;;4.50;;
39344;SDS011;25061;51.954;6.996;2023-11-18T16:07:58;12.70;;;5.43;;
39344;SDS011;25061;51.954;6.996;2023-11-18T16:10:24;11.13;;;5.35;;
39344;SDS011;25061;51.954;6.996;2023-11-18T16:15:21;11.05;;;4.90;;
39344;SDS011;25061;51.954;6.996;2023-11-18T16:17:48;13.63;;;5.20;;
39344;SDS011;25061;51.954;6.996;2023-11-18T16:20:14;11.38;;;5.05;;
39344;SDS011;25061;51.954;6.996;2023-11-18T16:22:48;11.25;;;5.43;;
39344;SDS011;25061;51.954;6.996;2023-11-18T16:25:15;11.40;;;5.63;;
39344;SDS011;25061;51.954;6.996;2023-11-18T16:27:46;12.77;;;5.30;;
39344;SDS011;25061;51.954;6.996;2023-11-18T16:30:13;15.18;;;5.85;;
39344;SDS011;25061;51.954;6.996;2023-11-18T16:32:39;11.77;;;6.32;;
39344;SDS011;25061;51.954;6.996;2023-11-18T16:35:05;13.60;;;6.45;;
39344;SDS011;25061;51.954;6.996;2023-11-18T16:37:38;9.40;;;4.45;;
39344;SDS011;25061;51.954;6.996;2023-11-18T16:40:05;12.55;;;5.88;;
39344;SDS011;25061;51.954;6.996;2023-11-18T16:42:31;9.15;;;4.35;;
39344;SDS011;25061;51.954;6.996;2023-11-18T16:44:58;9.20;;;4.25;;
39344;SDS011;25061;51.954;6.996;2023-11-18T16:47:25;12.32;;;5.15;;
39344;SDS011;25061;51.954;6.996;2023-11-18T16:49:50;11.20;;;5.80;;
39344;SDS011;25061;51.954;6.996;2023-11-18T16:52:16;11.23;;;5.50;;
39344;SDS011;25061;51.954;6.996;2023-11-18T16:54:42;14.20;;;5.40;;
39344;SDS011;25061;51.954;6.996;2023-11-18T16:57:08;10.75;;;4.97;;
39344;SDS011;25061;51.954;6.996;2023-11-18T16:59:34;11.00;;;5.72;;
39344;SDS011;25061;51.954;6.996;2023-11-18T17:02:00;10.20;;;4.43;;
39344;SDS011;25061;51.954;6.996;2023-11-18T17:04:26;10.35;;;4.50;;
39344;SDS011;25061;51.954;6.996;2023-11-18T17:06:52;9.00;;;4.00;;
39344;SDS011;25061;51.954;6.996;2023-11-18T17:09:18;12.00;;;5.30;;
39344;SDS011;25061;51.954;6.996;2023-11-18T17:11:47;11.45;;;5.07;;
39344;SDS011;25061;51.954;6.996;2023-11-18T17:14:13;12.85;;;5.35;;
39344;SDS011;25061;51.954;6.996;2023-11-18T17:16:41;10.77;;;5.15;;
39344;SDS011;25061;51.954;6.996;2023-11-18T17:19:11;9.97;;;4.73;;
39344;SDS011;25061;51.954;6.996;2023-11-18T17:21:37;12.35;;;4.60;;
39344;SDS011;25061;51.954;6.996;2023-11-18T17:24:03;10.65;;;4.97;;
39344;SDS011;25061;51.954;6.996;2023-11-18T17:26:29;10.02;;;4.70;;
39344;SDS011;25061;51.954;6.996;2023-11-18T17:29:03;10.95;;;4.93;;
39344;SDS011;25061;51.954;6.996;2023-11-18T17:31:28;9.15;;;3.75;;
39344;SDS011;25061;51.954;6.996;2023-11-18T17:33:54;10.00;;;3.95;;
39344;SDS011;25061;51.954;6.996;2023-11-18T17:36:20;11.05;;;4.10;;
39344;SDS011;25061;51.954;6.996;2023-11-18T17:38:45;8.40;;;3.92;;
39344;SDS011;25061;51.954;6.996;2023-11-18T17:41:11;10.00;;;4.93;;
39344;SDS011;25061;51.954;6.996;2023-11-18T17:43:37;9.90;;;3.92;;
39344;SDS011;25061;51.954;6.996;2023-11-18T17:46:03;8.52;;;3.97;;
39344;SDS011;25061;51.954;6.996;2023-11-18T17:48:29;9.85;;;4.50;;
39344;SDS011;25061;51.954;6.996;2023-11-18T17:50:54;9.95;;;4.65;;
39344;SDS011;25061;51.954;6.996;2023-11-18T17:53:23;8.80;;;4.20;;
39344;SDS011;25061;51.954;6.996;2023-11-18T17:55:49;9.43;;;4.50;;
39344;SDS011;25061;51.954;6.996;2023-11-18T17:58:15;10.85;;;4.60;;
39344;SDS011;25061;51.954;6.996;2023-11-18T18:00:41;9.50;;;4.60;;
39344;SDS011;25061;51.954;6.996;2023-11-18T18:03:07;10.48;;;5.30;;
39344;SDS011;25061;51.954;6.996;2023-11-18T18:05:33;9.65;;;5.28;;
39344;SDS011;25061;51.954;6.996;2023-11-18T18:07:58;9.13;;;4.25;;
39344;SDS011;25061;51.954;6.996;2023-11-18T18:10:24;9.98;;;4.55;;
39344;SDS011;25061;51.954;6.996;2023-11-18T18:12:53;9.18;;;4.88;;
39344;SDS011;25061;51.954;6.996;2023-11-18T18:15:19;10.35;;;5.18;;
39344;SDS011;25061;51.954;6.996;2023-11-18T18:17:46;8.27;;;4.43;;
39344;SDS011;25061;51.954;6.996;2023-11-18T18:20:14;8.40;;;4.05;;
39344;SDS011;25061;51.954;6.996;2023-11-18T18:22:40;11.50;;;4.63;;
39344;SDS011;25061;51.954;6.996;2023-11-18T18:25:07;7.82;;;3.92;;
39344;SDS011;25061;51.954;6.996;2023-11-18T18:27:33;11.93;;;6.20;;
39344;SDS011;25061;51.954;6.996;2023-11-18T18:29:59;11.25;;;4.60;;
39344;SDS011;25061;51.954;6.996;2023-11-18T18:32:25;8.98;;;3.53;;
39344;SDS011;25061;51.954;6.996;2023-11-18T18:34:51;7.32;;;3.28;;
39344;SDS011;25061;51.954;6.996;2023-11-18T18:37:17;7.65;;;3.60;;
39344;SDS011;25061;51.954;6.996;2023-11-18T18:39:44;7.85;;;3.58;;
39344;SDS011;25061;51.954;6.996;2023-11-18T18:42:12;7.45;;;3.58;;
39344;SDS011;25061;51.954;6.996;2023-11-18T18:44:38;6.40;;;2.85;;
39344;SDS011;25061;51.954;6.996;2023-11-18T18:47:04;8.18;;;3.55;;
39344;SDS011;25061;51.954;6.996;2023-11-18T18:49:31;7.18;;;2.95;;
39344;SDS011;25061;51.954;6.996;2023-11-18T18:51:57;7.03;;;3.20;;
39344;SDS011;25061;51.954;6.996;2023-11-18T18:54:22;8.88;;;3.78;;
39344;SDS011;25061;51.954;6.996;2023-11-18T18:56:48;7.10;;;3.55;;
39344;SDS011;25061;51.954;6.996;2023-11-18T18:59:14;7.55;;;3.40;;
39344;SDS011;25061;51.954;6.996;2023-11-18T19:01:40;6.20;;;2.80;;
39344;SDS011;25061;51.954;6.996;2023-11-18T19:04:09;7.53;;;3.30;;
39344;SDS011;25061;51.954;6.996;2023-11-18T19:06:36;6.40;;;3.08;;
39344;SDS011;25061;51.954;6.996;2023-11-18T19:09:05;8.27;;;3.60;;
39344;SDS011;25061;51.954;6.996;2023-11-18T19:11:34;7.90;;;3.95;;
39344;SDS011;25061;51.954;6.996;2023-11-18T19:14:00;7.18;;;3.15;;
39344;SDS011;25061;51.954;6.996;2023-11-18T19:16:26;6.50;;;3.13;;
39344;SDS011;25061;51.954;6.996;2023-11-18T19:18:52;6.40;;;2.90;;
39344;SDS011;25061;51.954;6.996;2023-11-18T19:21:20;6.40;;;2.85;;
39344;SDS011;25061;51.954;6.996;2023-11-18T19:23:46;8.25;;;2.95;;
39344;SDS011;25061;51.954;6.996;2023-11-18T19:26:12;7.80;;;3.22;;
39344;SDS011;25061;51.954;6.996;2023-11-18T19:28:38;7.03;;;3.30;;
39344;SDS011;25061;51.954;6.996;2023-11-18T19:31:03;7.43;;;3.67;;
39344;SDS011;25061;51.954;6.996;2023-11-18T19:33:30;7.63;;;4.10;;
39344;SDS011;25061;51.954;6.996;2023-11-18T19:35:55;8.00;;;4.30;;
39344;SDS011;25061;51.954;6.996;2023-11-18T19:38:22;7.68;;;3.85;;
39344;SDS011;25061;51.954;6.996;2023-11-18T19:40:48;8.88;;;4.78;;
39344;SDS011;25061;51.954;6.996;2023-11-18T19:43:13;7.90;;;4.60;;
39344;SDS011;25061;51.954;6.996;2023-11-18T19:45:40;9.25;;;5.05;;
39344;SDS011;25061;51.954;6.996;2023-11-18T19:48:05;9.40;;;4.20;;
39344;SDS011;25061;51.954;6.996;2023-11-18T19:50:31;9.35;;;5.00;;
39344;SDS011;25061;51.954;6.996;2023-11-18T19:52:57;9.43;;;5.07;;
39344;SDS011;25061;51.954;6.996;2023-11-18T19:55:23;9.45;;;5.95;;
39344;SDS011;25061;51.954;6.996;2023-11-18T19:57:48;11.20;;;5.80;;
39344;SDS011;25061;51.954;6.996;2023-11-18T20:00:14;11.32;;;6.80;;
39344;SDS011;25061;51.954;6.996;2023-11-18T20:02:42;11.52;;;7.18;;
39344;SDS011;25061;51.954;6.996;2023-11-18T20:05:08;9.93;;;6.10;;
39344;SDS011;25061;51.954;6.996;2023-11-18T20:07:35;11.68;;;6.88;;
39344;SDS011;25061;51.954;6.996;2023-11-18T20:10:00;11.05;;;6.82;;
39344;SDS011;25061;51.954;6.996;2023-11-18T20:12:26;10.98;;;6.85;;
39344;SDS011;25061;51.954;6.996;2023-11-18T20:14:52;10.98;;;6.97;;
39344;SDS011;25061;51.954;6.996;2023-11-18T20:17:18;12.90;;;7.70;;
39344;SDS011;25061;51.954;6.996;2023-11-18T20:19:44;12.65;;;7.25;;
39344;SDS011;25061;51.954;6.996;2023-11-18T20:22:09;13.10;;;7.00;;
39344;SDS011;25061;51.954;6.996;2023-11-18T20:24:35;10.85;;;6.32;;
39344;SDS011;25061;51.954;6.996;2023-11-18T20:27:01;12.02;;;6.60;;
39344;SDS011;25061;51.954;6.996;2023-11-18T20:29:27;11.02;;;6.50;;
39344;SDS011;25061;51.954;6.996;2023-11-18T20:31:54;11.18;;;6.47;;
39344;SDS011;25061;51.954;6.996;2023-11-18T20:34:20;11.43;;;6.93;;
39344;SDS011;25061;51.954;6.996;2023-11-18T20:36:46;11.48;;;7.25;;
39344;SDS011;25061;51.954;6.996;2023-11-18T20:39:13;12.57;;;7.80;;
39344;SDS011;25061;51.954;6.996;2023-11-18T20:41:45;12.10;;;7.38;;
39344;SDS011;25061;51.954;6.996;2023-11-18T20:44:12;12.95;;;7.90;;
39344;SDS011;25061;51.954;6.996;2023-11-18T20:46:38;13.63;;;7.75;;
39344;SDS011;25061;51.954;6.996;2023-11-18T20:49:04;13.13;;;7.90;;